sensor_id;sensor_type;location;lat;lon;timestamp;P1;durP1;ratioP1;P2;durP2;ratioP2
77838;SDS011;67034;43.226;27.932;2023-11-19T00:02:08;2.40;;;1.45;;
77838;SDS011;67034;43.226;27.932;2023-11-19T00:04:36;1.65;;;1.05;;
77838;SDS011;67034;43.226;27.932;2023-11-19T00:07:02;2.28;;;1.63;;
77838;SDS011;67034;43.226;27.932;2023-11-19T00:09:29;1.25;;;0.63;;
77838;SDS011;67034;43.226;27.932;2023-11-19T00:11:56;1.08;;;0.93;;
77838;SDS011;67034;43.226;27.932;2023-11-19T00:14:23;3.55;;;1.67;;
77838;SDS011;67034;43.226;27.932;2023-11-19T00:16:50;2.90;;;1.52;;
77838;SDS011;67034;43.226;27.932;2023-11-19T00:19:16;2.08;;;1.52;;
77838;SDS011;67034;43.226;27.932;2023-11-19T00:21:42;3.08;;;1.50;;
77838;SDS011;67034;43.226;27.932;2023-11-19T00:24:08;1.27;;;0.82;;
77838;SDS011;67034;43.226;27.932;2023-11-19T00:26:34;2.53;;;1.48;;
77838;SDS011;67034;43.226;27.932;2023-11-19T00:29:01;2.92;;;1.48;;
77838;SDS011;67034;43.226;27.932;2023-11-19T00:31:26;1.33;;;1.00;;
77838;SDS011;67034;43.226;27.932;2023-11-19T00:33:53;3.38;;;1.58;;
77838;SDS011;67034;43.226;27.932;2023-11-19T00:36:18;1.88;;;1.35;;
77838;SDS011;67034;43.226;27.932;2023-11-19T00:38:44;1.67;;;1.10;;
77838;SDS011;67034;43.226;27.932;2023-11-19T00:41:10;3.28;;;1.80;;
77838;SDS011;67034;43.226;27.932;2023-11-19T00:43:35;3.25;;;1.48;;
77838;SDS011;67034;43.226;27.932;2023-11-19T00:46:03;2.05;;;1.38;;
77838;SDS011;67034;43.226;27.932;2023-11-19T00:48:32;3.45;;;1.73;;
77838;SDS011;67034;43.226;27.932;2023-11-19T00:50:57;2.15;;;1.55;;
77838;SDS011;67034;43.226;27.932;2023-11-19T00:53:23;2.63;;;1.65;;
77838;SDS011;67034;43.226;27.932;2023-11-19T00:55:49;2.15;;;1.80;;
77838;SDS011;67034;43.226;27.932;2023-11-19T00:58:14;2.92;;;1.95;;
77838;SDS011;67034;43.226;27.932;2023-11-19T01:00:40;1.75;;;1.20;;
77838;SDS011;67034;43.226;27.932;2023-11-19T01:03:07;2.75;;;1.63;;
77838;SDS011;67034;43.226;27.932;2023-11-19T01:05:33;3.85;;;2.10;;
77838;SDS011;67034;43.226;27.932;2023-11-19T01:07:58;2.20;;;1.35;;
77838;SDS011;67034;43.226;27.932;2023-11-19T01:10:24;1.10;;;0.70;;
77838;SDS011;67034;43.226;27.932;2023-11-19T01:12:51;3.50;;;2.28;;
77838;SDS011;67034;43.226;27.932;2023-11-19T01:15:17;2.80;;;1.58;;
77838;SDS011;67034;43.226;27.932;2023-11-19T01:17:44;3.08;;;1.92;;
77838;SDS011;67034;43.226;27.932;2023-11-19T01:20:12;2.22;;;1.48;;
77838;SDS011;67034;43.226;27.932;2023-11-19T01:22:38;1.67;;;1.27;;
77838;SDS011;67034;43.226;27.932;2023-11-19T01:25:05;2.70;;;1.88;;
77838;SDS011;67034;43.226;27.932;2023-11-19T01:27:31;3.95;;;1.92;;
77838;SDS011;67034;43.226;27.932;2023-11-19T01:29:59;2.58;;;1.40;;
77838;SDS011;67034;43.226;27.932;2023-11-19T01:32:27;2.40;;;1.88;;
77838;SDS011;67034;43.226;27.932;2023-11-19T01:34:52;2.13;;;1.52;;
77838;SDS011;67034;43.226;27.932;2023-11-19T01:37:20;2.72;;;1.70;;
77838;SDS011;67034;43.226;27.932;2023-11-19T01:39:45;3.17;;;2.45;;
77838;SDS011;67034;43.226;27.932;2023-11-19T01:42:11;3.88;;;2.38;;
77838;SDS011;67034;43.226;27.932;2023-11-19T01:44:37;3.50;;;1.52;;
77838;SDS011;67034;43.226;27.932;2023-11-19T01:47:03;4.03;;;2.65;;
77838;SDS011;67034;43.226;27.932;2023-11-19T01:49:30;2.83;;;1.83;;
77838;SDS011;67034;43.226;27.932;2023-11-19T01:51:56;3.58;;;2.08;;
77838;SDS011;67034;43.226;27.932;2023-11-19T01:54:24;3.55;;;2.10;;
77838;SDS011;67034;43.226;27.932;2023-11-19T01:56:49;2.70;;;1.85;;
77838;SDS011;67034;43.226;27.932;2023-11-19T01:59:15;3.47;;;2.33;;
77838;SDS011;67034;43.226;27.932;2023-11-19T02:04:07;4.80;;;2.55;;
77838;SDS011;67034;43.226;27.932;2023-11-19T02:06:34;4.18;;;2.22;;
77838;SDS011;67034;43.226;27.932;2023-11-19T02:09:02;3.20;;;1.95;;
77838;SDS011;67034;43.226;27.932;2023-11-19T02:11:34;3.50;;;2.22;;
77838;SDS011;67034;43.226;27.932;2023-11-19T02:14:00;4.10;;;2.47;;
77838;SDS011;67034;43.226;27.932;2023-11-19T02:16:26;3.90;;;2.53;;
77838;SDS011;67034;43.226;27.932;2023-11-19T02:18:51;4.47;;;2.50;;
77838;SDS011;67034;43.226;27.932;2023-11-19T02:21:17;3.30;;;2.15;;
77838;SDS011;67034;43.226;27.932;2023-11-19T02:23:43;3.30;;;2.33;;
77838;SDS011;67034;43.226;27.932;2023-11-19T02:26:12;2.15;;;1.65;;
77838;SDS011;67034;43.226;27.932;2023-11-19T02:28:41;2.40;;;1.73;;
77838;SDS011;67034;43.226;27.932;2023-11-19T02:31:08;2.35;;;1.70;;
77838;SDS011;67034;43.226;27.932;2023-11-19T02:33:35;4.03;;;2.60;;
77838;SDS011;67034;43.226;27.932;2023-11-19T02:36:01;4.65;;;2.70;;
77838;SDS011;67034;43.226;27.932;2023-11-19T02:38:28;3.53;;;2.40;;
77838;SDS011;67034;43.226;27.932;2023-11-19T02:40:55;5.13;;;2.28;;
77838;SDS011;67034;43.226;27.932;2023-11-19T02:43:21;3.92;;;2.53;;
77838;SDS011;67034;43.226;27.932;2023-11-19T02:45:49;4.10;;;3.03;;
77838;SDS011;67034;43.226;27.932;2023-11-19T02:48:15;4.30;;;2.85;;
77838;SDS011;67034;43.226;27.932;2023-11-19T02:50:41;4.57;;;2.83;;
77838;SDS011;67034;43.226;27.932;2023-11-19T02:53:07;4.88;;;2.83;;
77838;SDS011;67034;43.226;27.932;2023-11-19T02:55:33;4.43;;;2.47;;
77838;SDS011;67034;43.226;27.932;2023-11-19T02:58:04;3.67;;;2.35;;
77838;SDS011;67034;43.226;27.932;2023-11-19T03:00:44;4.70;;;2.97;;
77838;SDS011;67034;43.226;27.932;2023-11-19T03:03:20;5.30;;;2.78;;
77838;SDS011;67034;43.226;27.932;2023-11-19T03:05:47;3.33;;;2.45;;
77838;SDS011;67034;43.226;27.932;2023-11-19T03:08:14;4.53;;;2.85;;
77838;SDS011;67034;43.226;27.932;2023-11-19T03:10:41;4.70;;;3.35;;
77838;SDS011;67034;43.226;27.932;2023-11-19T03:13:07;7.40;;;4.20;;
77838;SDS011;67034;43.226;27.932;2023-11-19T03:15:45;6.13;;;3.72;;
77838;SDS011;67034;43.226;27.932;2023-11-19T03:18:11;7.55;;;3.35;;
77838;SDS011;67034;43.226;27.932;2023-11-19T03:20:38;8.02;;;3.88;;
77838;SDS011;67034;43.226;27.932;2023-11-19T03:23:04;7.45;;;4.50;;
77838;SDS011;67034;43.226;27.932;2023-11-19T03:25:31;5.65;;;3.75;;
77838;SDS011;67034;43.226;27.932;2023-11-19T03:28:01;5.95;;;3.78;;
77838;SDS011;67034;43.226;27.932;2023-11-19T03:32:53;5.25;;;4.05;;
77838;SDS011;67034;43.226;27.932;2023-11-19T03:35:19;6.18;;;3.72;;
77838;SDS011;67034;43.226;27.932;2023-11-19T03:37:47;6.15;;;4.78;;
77838;SDS011;67034;43.226;27.932;2023-11-19T03:40:12;7.35;;;4.03;;
77838;SDS011;67034;43.226;27.932;2023-11-19T03:42:39;6.53;;;4.18;;
77838;SDS011;67034;43.226;27.932;2023-11-19T03:45:05;8.70;;;4.38;;
77838;SDS011;67034;43.226;27.932;2023-11-19T03:47:33;7.55;;;4.53;;
77838;SDS011;67034;43.226;27.932;2023-11-19T03:49:59;6.57;;;4.50;;
77838;SDS011;67034;43.226;27.932;2023-11-19T03:52:25;10.35;;;5.65;;
77838;SDS011;67034;43.226;27.932;2023-11-19T03:54:53;9.60;;;6.10;;
77838;SDS011;67034;43.226;27.932;2023-11-19T03:57:20;10.00;;;5.28;;
77838;SDS011;67034;43.226;27.932;2023-11-19T03:59:46;4.18;;;2.85;;
77838;SDS011;67034;43.226;27.932;2023-11-19T04:02:11;8.10;;;4.57;;
77838;SDS011;67034;43.226;27.932;2023-11-19T04:04:37;9.98;;;4.68;;
77838;SDS011;67034;43.226;27.932;2023-11-19T04:07:04;10.38;;;5.65;;
77838;SDS011;67034;43.226;27.932;2023-11-19T04:09:30;7.28;;;4.38;;
77838;SDS011;67034;43.226;27.932;2023-11-19T04:11:59;7.93;;;4.35;;
77838;SDS011;67034;43.226;27.932;2023-11-19T04:14:25;8.07;;;4.28;;
77838;SDS011;67034;43.226;27.932;2023-11-19T04:16:51;5.47;;;4.00;;
77838;SDS011;67034;43.226;27.932;2023-11-19T04:19:17;10.35;;;6.30;;
77838;SDS011;67034;43.226;27.932;2023-11-19T04:21:43;8.90;;;4.35;;
77838;SDS011;67034;43.226;27.932;2023-11-19T04:24:09;6.70;;;3.90;;
77838;SDS011;67034;43.226;27.932;2023-11-19T04:26:39;10.82;;;6.20;;
77838;SDS011;67034;43.226;27.932;2023-11-19T04:29:07;8.52;;;6.30;;
77838;SDS011;67034;43.226;27.932;2023-11-19T04:31:33;8.80;;;5.53;;
77838;SDS011;67034;43.226;27.932;2023-11-19T04:33:59;8.82;;;6.38;;
77838;SDS011;67034;43.226;27.932;2023-11-19T04:36:25;8.73;;;5.13;;
77838;SDS011;67034;43.226;27.932;2023-11-19T04:38:51;8.30;;;4.53;;
77838;SDS011;67034;43.226;27.932;2023-11-19T04:41:17;6.30;;;4.50;;
77838;SDS011;67034;43.226;27.932;2023-11-19T04:43:42;7.20;;;3.95;;
77838;SDS011;67034;43.226;27.932;2023-11-19T04:46:10;6.70;;;4.68;;
77838;SDS011;67034;43.226;27.932;2023-11-19T04:48:36;7.85;;;4.50;;
77838;SDS011;67034;43.226;27.932;2023-11-19T04:51:04;7.63;;;4.93;;
77838;SDS011;67034;43.226;27.932;2023-11-19T04:53:30;6.82;;;4.55;;
77838;SDS011;67034;43.226;27.932;2023-11-19T04:55:56;9.93;;;5.25;;
77838;SDS011;67034;43.226;27.932;2023-11-19T04:58:21;8.07;;;5.72;;
77838;SDS011;67034;43.226;27.932;2023-11-19T05:00:47;6.28;;;4.13;;
77838;SDS011;67034;43.226;27.932;2023-11-19T05:03:14;8.38;;;4.60;;
77838;SDS011;67034;43.226;27.932;2023-11-19T05:05:40;8.10;;;6.15;;
77838;SDS011;67034;43.226;27.932;2023-11-19T05:08:06;10.90;;;6.88;;
77838;SDS011;67034;43.226;27.932;2023-11-19T05:10:32;10.15;;;6.07;;
77838;SDS011;67034;43.226;27.932;2023-11-19T05:12:57;4.53;;;3.35;;
77838;SDS011;67034;43.226;27.932;2023-11-19T05:15:23;9.90;;;6.28;;
77838;SDS011;67034;43.226;27.932;2023-11-19T05:17:49;10.43;;;6.05;;
77838;SDS011;67034;43.226;27.932;2023-11-19T05:20:16;8.90;;;5.60;;
77838;SDS011;67034;43.226;27.932;2023-11-19T05:22:42;7.70;;;5.80;;
77838;SDS011;67034;43.226;27.932;2023-11-19T05:25:08;9.88;;;5.88;;
77838;SDS011;67034;43.226;27.932;2023-11-19T05:27:34;10.23;;;6.63;;
77838;SDS011;67034;43.226;27.932;2023-11-19T05:30:01;12.50;;;5.65;;
77838;SDS011;67034;43.226;27.932;2023-11-19T05:32:26;9.40;;;5.53;;
77838;SDS011;67034;43.226;27.932;2023-11-19T05:34:52;8.55;;;6.07;;
77838;SDS011;67034;43.226;27.932;2023-11-19T05:37:19;8.68;;;4.00;;
77838;SDS011;67034;43.226;27.932;2023-11-19T05:39:45;9.30;;;5.20;;
77838;SDS011;67034;43.226;27.932;2023-11-19T05:42:11;8.82;;;5.70;;
77838;SDS011;67034;43.226;27.932;2023-11-19T05:44:36;6.63;;;4.57;;
77838;SDS011;67034;43.226;27.932;2023-11-19T05:47:03;6.53;;;4.03;;
77838;SDS011;67034;43.226;27.932;2023-11-19T05:51:54;8.90;;;4.50;;
77838;SDS011;67034;43.226;27.932;2023-11-19T05:54:22;7.70;;;4.95;;
77838;SDS011;67034;43.226;27.932;2023-11-19T05:56:48;8.25;;;5.40;;
77838;SDS011;67034;43.226;27.932;2023-11-19T05:59:14;9.75;;;4.97;;
77838;SDS011;67034;43.226;27.932;2023-11-19T06:01:43;5.47;;;4.13;;
77838;SDS011;67034;43.226;27.932;2023-11-19T06:04:09;7.90;;;4.90;;
77838;SDS011;67034;43.226;27.932;2023-11-19T06:06:35;9.60;;;5.65;;
77838;SDS011;67034;43.226;27.932;2023-11-19T06:09:01;6.85;;;3.55;;
77838;SDS011;67034;43.226;27.932;2023-11-19T06:11:28;8.73;;;5.55;;
77838;SDS011;67034;43.226;27.932;2023-11-19T06:13:54;8.00;;;3.75;;
77838;SDS011;67034;43.226;27.932;2023-11-19T06:16:20;7.55;;;3.72;;
77838;SDS011;67034;43.226;27.932;2023-11-19T06:18:46;9.05;;;5.22;;
77838;SDS011;67034;43.226;27.932;2023-11-19T06:21:11;4.72;;;3.17;;
77838;SDS011;67034;43.226;27.932;2023-11-19T06:23:37;7.05;;;3.65;;
77838;SDS011;67034;43.226;27.932;2023-11-19T06:26:03;6.30;;;4.05;;
77838;SDS011;67034;43.226;27.932;2023-11-19T06:28:31;6.95;;;4.30;;
77838;SDS011;67034;43.226;27.932;2023-11-19T06:30:57;6.68;;;4.57;;
77838;SDS011;67034;43.226;27.932;2023-11-19T06:33:23;8.05;;;4.65;;
77838;SDS011;67034;43.226;27.932;2023-11-19T06:35:49;5.57;;;3.58;;
77838;SDS011;67034;43.226;27.932;2023-11-19T06:38:15;6.22;;;4.00;;
77838;SDS011;67034;43.226;27.932;2023-11-19T06:40:41;6.88;;;4.43;;
77838;SDS011;67034;43.226;27.932;2023-11-19T06:43:06;7.55;;;5.03;;
77838;SDS011;67034;43.226;27.932;2023-11-19T06:45:35;7.65;;;5.05;;
77838;SDS011;67034;43.226;27.932;2023-11-19T06:48:04;9.18;;;4.72;;
77838;SDS011;67034;43.226;27.932;2023-11-19T06:52:56;6.72;;;4.63;;
77838;SDS011;67034;43.226;27.932;2023-11-19T06:55:21;11.85;;;4.85;;
77838;SDS011;67034;43.226;27.932;2023-11-19T06:57:47;9.50;;;6.35;;
77838;SDS011;67034;43.226;27.932;2023-11-19T07:00:13;7.53;;;4.88;;
77838;SDS011;67034;43.226;27.932;2023-11-19T07:02:40;6.55;;;4.97;;
77838;SDS011;67034;43.226;27.932;2023-11-19T07:05:06;6.25;;;4.78;;
77838;SDS011;67034;43.226;27.932;2023-11-19T07:07:33;9.45;;;4.95;;
77838;SDS011;67034;43.226;27.932;2023-11-19T07:09:59;6.00;;;4.22;;
77838;SDS011;67034;43.226;27.932;2023-11-19T07:12:24;7.47;;;5.05;;
77838;SDS011;67034;43.226;27.932;2023-11-19T07:14:51;7.53;;;5.03;;
77838;SDS011;67034;43.226;27.932;2023-11-19T07:17:18;6.72;;;4.43;;
77838;SDS011;67034;43.226;27.932;2023-11-19T07:19:45;6.43;;;4.45;;
77838;SDS011;67034;43.226;27.932;2023-11-19T07:22:11;7.20;;;4.60;;
77838;SDS011;67034;43.226;27.932;2023-11-19T07:24:38;4.78;;;3.38;;
77838;SDS011;67034;43.226;27.932;2023-11-19T07:27:04;7.40;;;4.28;;
77838;SDS011;67034;43.226;27.932;2023-11-19T07:29:30;8.20;;;5.15;;
77838;SDS011;67034;43.226;27.932;2023-11-19T07:31:56;8.57;;;3.75;;
77838;SDS011;67034;43.226;27.932;2023-11-19T07:34:22;7.05;;;4.65;;
77838;SDS011;67034;43.226;27.932;2023-11-19T07:36:50;13.35;;;4.38;;
77838;SDS011;67034;43.226;27.932;2023-11-19T07:39:15;9.98;;;5.78;;
77838;SDS011;67034;43.226;27.932;2023-11-19T07:41:41;8.45;;;4.63;;
77838;SDS011;67034;43.226;27.932;2023-11-19T07:44:07;7.43;;;4.65;;
77838;SDS011;67034;43.226;27.932;2023-11-19T07:46:32;6.65;;;4.25;;
77838;SDS011;67034;43.226;27.932;2023-11-19T07:48:58;7.18;;;4.45;;
77838;SDS011;67034;43.226;27.932;2023-11-19T07:51:24;7.10;;;4.45;;
77838;SDS011;67034;43.226;27.932;2023-11-19T07:53:51;7.28;;;4.28;;
77838;SDS011;67034;43.226;27.932;2023-11-19T07:56:17;6.97;;;4.30;;
77838;SDS011;67034;43.226;27.932;2023-11-19T07:58:42;7.78;;;4.80;;
77838;SDS011;67034;43.226;27.932;2023-11-19T08:01:08;5.63;;;4.32;;
77838;SDS011;67034;43.226;27.932;2023-11-19T08:03:34;7.75;;;4.47;;
77838;SDS011;67034;43.226;27.932;2023-11-19T08:06:00;6.50;;;4.50;;
77838;SDS011;67034;43.226;27.932;2023-11-19T08:08:26;6.47;;;4.05;;
77838;SDS011;67034;43.226;27.932;2023-11-19T08:10:56;7.65;;;5.25;;
77838;SDS011;67034;43.226;27.932;2023-11-19T08:13:22;9.77;;;5.30;;
77838;SDS011;67034;43.226;27.932;2023-11-19T08:15:48;7.05;;;5.05;;
77838;SDS011;67034;43.226;27.932;2023-11-19T08:18:14;5.25;;;3.63;;
77838;SDS011;67034;43.226;27.932;2023-11-19T08:20:39;7.43;;;4.97;;
77838;SDS011;67034;43.226;27.932;2023-11-19T08:23:06;6.50;;;4.85;;
77838;SDS011;67034;43.226;27.932;2023-11-19T08:25:32;8.50;;;4.95;;
77838;SDS011;67034;43.226;27.932;2023-11-19T08:28:02;6.18;;;3.00;;
77838;SDS011;67034;43.226;27.932;2023-11-19T08:30:29;11.10;;;5.88;;
77838;SDS011;67034;43.226;27.932;2023-11-19T08:35:21;4.03;;;3.30;;
77838;SDS011;67034;43.226;27.932;2023-11-19T08:37:47;8.02;;;5.00;;
77838;SDS011;67034;43.226;27.932;2023-11-19T08:40:12;7.65;;;5.50;;
77838;SDS011;67034;43.226;27.932;2023-11-19T08:42:39;6.75;;;4.97;;
77838;SDS011;67034;43.226;27.932;2023-11-19T08:45:07;9.60;;;4.72;;
77838;SDS011;67034;43.226;27.932;2023-11-19T08:47:37;7.45;;;4.68;;
77838;SDS011;67034;43.226;27.932;2023-11-19T08:50:03;7.40;;;4.25;;
77838;SDS011;67034;43.226;27.932;2023-11-19T08:52:29;7.65;;;5.10;;
77838;SDS011;67034;43.226;27.932;2023-11-19T08:54:55;10.38;;;3.92;;
77838;SDS011;67034;43.226;27.932;2023-11-19T08:57:21;5.78;;;4.03;;
77838;SDS011;67034;43.226;27.932;2023-11-19T08:59:46;7.15;;;4.93;;
77838;SDS011;67034;43.226;27.932;2023-11-19T09:02:13;7.53;;;4.97;;
77838;SDS011;67034;43.226;27.932;2023-11-19T09:04:39;6.22;;;4.63;;
77838;SDS011;67034;43.226;27.932;2023-11-19T09:07:06;7.05;;;5.18;;
77838;SDS011;67034;43.226;27.932;2023-11-19T09:09:33;7.00;;;5.18;;
77838;SDS011;67034;43.226;27.932;2023-11-19T09:12:01;6.68;;;4.80;;
77838;SDS011;67034;43.226;27.932;2023-11-19T09:14:26;5.38;;;3.55;;
77838;SDS011;67034;43.226;27.932;2023-11-19T09:16:52;7.63;;;4.65;;
77838;SDS011;67034;43.226;27.932;2023-11-19T09:19:19;7.45;;;5.07;;
77838;SDS011;67034;43.226;27.932;2023-11-19T09:24:03;8.20;;;4.70;;
77838;SDS011;67034;43.226;27.932;2023-11-19T09:26:29;5.75;;;3.28;;
77838;SDS011;67034;43.226;27.932;2023-11-19T09:28:56;5.95;;;3.88;;
77838;SDS011;67034;43.226;27.932;2023-11-19T09:31:21;4.93;;;3.80;;
77838;SDS011;67034;43.226;27.932;2023-11-19T09:33:47;7.03;;;4.70;;
77838;SDS011;67034;43.226;27.932;2023-11-19T09:36:13;7.82;;;4.85;;
77838;SDS011;67034;43.226;27.932;2023-11-19T09:38:42;6.65;;;5.13;;
77838;SDS011;67034;43.226;27.932;2023-11-19T09:41:10;8.25;;;5.88;;
77838;SDS011;67034;43.226;27.932;2023-11-19T09:43:38;8.38;;;4.93;;
77838;SDS011;67034;43.226;27.932;2023-11-19T09:46:05;7.82;;;5.40;;
77838;SDS011;67034;43.226;27.932;2023-11-19T09:48:32;7.63;;;4.80;;
77838;SDS011;67034;43.226;27.932;2023-11-19T09:50:58;9.35;;;5.82;;
77838;SDS011;67034;43.226;27.932;2023-11-19T09:53:24;7.30;;;4.97;;
77838;SDS011;67034;43.226;27.932;2023-11-19T09:55:50;8.07;;;5.45;;
77838;SDS011;67034;43.226;27.932;2023-11-19T09:58:18;7.68;;;5.15;;
77838;SDS011;67034;43.226;27.932;2023-11-19T10:00:44;6.60;;;4.57;;
77838;SDS011;67034;43.226;27.932;2023-11-19T10:03:10;5.63;;;4.15;;
77838;SDS011;67034;43.226;27.932;2023-11-19T10:05:38;7.97;;;4.63;;
77838;SDS011;67034;43.226;27.932;2023-11-19T10:08:05;6.10;;;4.00;;
77838;SDS011;67034;43.226;27.932;2023-11-19T10:10:31;8.02;;;5.80;;
77838;SDS011;67034;43.226;27.932;2023-11-19T10:12:56;5.68;;;3.95;;
77838;SDS011;67034;43.226;27.932;2023-11-19T10:15:24;7.93;;;5.30;;
77838;SDS011;67034;43.226;27.932;2023-11-19T10:17:51;8.48;;;5.22;;
77838;SDS011;67034;43.226;27.932;2023-11-19T10:20:17;8.90;;;4.75;;
77838;SDS011;67034;43.226;27.932;2023-11-19T10:22:43;7.63;;;5.10;;
77838;SDS011;67034;43.226;27.932;2023-11-19T10:25:21;6.70;;;4.25;;
77838;SDS011;67034;43.226;27.932;2023-11-19T10:27:48;7.57;;;5.13;;
77838;SDS011;67034;43.226;27.932;2023-11-19T10:30:14;9.85;;;5.30;;
77838;SDS011;67034;43.226;27.932;2023-11-19T10:32:44;6.78;;;4.00;;
77838;SDS011;67034;43.226;27.932;2023-11-19T10:35:10;5.97;;;4.75;;
77838;SDS011;67034;43.226;27.932;2023-11-19T10:37:38;7.43;;;4.65;;
77838;SDS011;67034;43.226;27.932;2023-11-19T10:40:04;9.95;;;5.22;;
77838;SDS011;67034;43.226;27.932;2023-11-19T10:42:31;7.88;;;5.18;;
77838;SDS011;67034;43.226;27.932;2023-11-19T10:44:56;6.65;;;5.45;;
77838;SDS011;67034;43.226;27.932;2023-11-19T10:47:22;7.10;;;4.88;;
77838;SDS011;67034;43.226;27.932;2023-11-19T10:49:50;6.90;;;3.63;;
77838;SDS011;67034;43.226;27.932;2023-11-19T10:52:17;8.23;;;4.93;;
77838;SDS011;67034;43.226;27.932;2023-11-19T10:54:48;5.35;;;3.80;;
77838;SDS011;67034;43.226;27.932;2023-11-19T10:57:19;6.22;;;4.20;;
77838;SDS011;67034;43.226;27.932;2023-11-19T10:59:46;5.13;;;3.75;;
77838;SDS011;67034;43.226;27.932;2023-11-19T11:02:16;5.88;;;3.67;;
77838;SDS011;67034;43.226;27.932;2023-11-19T11:04:47;6.03;;;4.20;;
77838;SDS011;67034;43.226;27.932;2023-11-19T11:07:15;6.13;;;3.47;;
77838;SDS011;67034;43.226;27.932;2023-11-19T11:09:45;9.15;;;3.97;;
77838;SDS011;67034;43.226;27.932;2023-11-19T11:12:14;8.27;;;5.07;;
77838;SDS011;67034;43.226;27.932;2023-11-19T11:14:43;5.18;;;3.75;;
77838;SDS011;67034;43.226;27.932;2023-11-19T11:17:10;7.80;;;3.80;;
77838;SDS011;67034;43.226;27.932;2023-11-19T11:19:37;5.18;;;3.92;;
77838;SDS011;67034;43.226;27.932;2023-11-19T11:22:04;5.72;;;3.65;;
77838;SDS011;67034;43.226;27.932;2023-11-19T11:24:40;4.95;;;3.75;;
77838;SDS011;67034;43.226;27.932;2023-11-19T11:30:13;8.05;;;4.18;;
77838;SDS011;67034;43.226;27.932;2023-11-19T11:32:51;6.95;;;4.03;;
77838;SDS011;67034;43.226;27.932;2023-11-19T11:35:25;6.15;;;3.60;;
77838;SDS011;67034;43.226;27.932;2023-11-19T11:38:00;3.83;;;2.92;;
77838;SDS011;67034;43.226;27.932;2023-11-19T11:40:29;7.15;;;5.22;;
77838;SDS011;67034;43.226;27.932;2023-11-19T11:42:56;7.40;;;4.20;;
77838;SDS011;67034;43.226;27.932;2023-11-19T11:45:34;6.20;;;4.30;;
77838;SDS011;67034;43.226;27.932;2023-11-19T11:50:52;7.90;;;4.13;;
77838;SDS011;67034;43.226;27.932;2023-11-19T11:53:22;8.57;;;5.40;;
77838;SDS011;67034;43.226;27.932;2023-11-19T11:55:54;5.75;;;4.10;;
77838;SDS011;67034;43.226;27.932;2023-11-19T11:58:25;6.90;;;4.57;;
77838;SDS011;67034;43.226;27.932;2023-11-19T12:00:52;7.45;;;4.10;;
77838;SDS011;67034;43.226;27.932;2023-11-19T12:03:19;5.45;;;3.83;;
77838;SDS011;67034;43.226;27.932;2023-11-19T12:05:47;10.32;;;4.78;;
77838;SDS011;67034;43.226;27.932;2023-11-19T12:08:13;5.53;;;3.47;;
77838;SDS011;67034;43.226;27.932;2023-11-19T12:10:43;5.75;;;3.75;;
77838;SDS011;67034;43.226;27.932;2023-11-19T12:13:14;6.95;;;4.63;;
77838;SDS011;67034;43.226;27.932;2023-11-19T12:18:33;7.43;;;4.05;;
77838;SDS011;67034;43.226;27.932;2023-11-19T12:23:25;5.55;;;3.78;;
77838;SDS011;67034;43.226;27.932;2023-11-19T12:25:52;7.80;;;4.90;;
77838;SDS011;67034;43.226;27.932;2023-11-19T12:30:44;5.13;;;3.95;;
77838;SDS011;67034;43.226;27.932;2023-11-19T12:33:14;7.80;;;4.45;;
77838;SDS011;67034;43.226;27.932;2023-11-19T12:40:31;7.82;;;4.88;;
77838;SDS011;67034;43.226;27.932;2023-11-19T12:45:24;7.10;;;4.50;;
77838;SDS011;67034;43.226;27.932;2023-11-19T12:47:50;10.45;;;4.82;;
77838;SDS011;67034;43.226;27.932;2023-11-19T12:53:16;5.88;;;3.83;;
77838;SDS011;67034;43.226;27.932;2023-11-19T12:55:42;6.13;;;3.88;;
77838;SDS011;67034;43.226;27.932;2023-11-19T12:58:07;7.75;;;4.25;;
77838;SDS011;67034;43.226;27.932;2023-11-19T13:00:34;6.00;;;3.83;;
77838;SDS011;67034;43.226;27.932;2023-11-19T13:03:00;7.68;;;5.22;;
77838;SDS011;67034;43.226;27.932;2023-11-19T13:05:26;5.85;;;3.80;;
77838;SDS011;67034;43.226;27.932;2023-11-19T13:08:03;5.50;;;3.92;;
77838;SDS011;67034;43.226;27.932;2023-11-19T13:10:30;5.45;;;3.88;;
77838;SDS011;67034;43.226;27.932;2023-11-19T13:13:00;5.28;;;3.25;;
77838;SDS011;67034;43.226;27.932;2023-11-19T13:15:27;5.07;;;3.17;;
77838;SDS011;67034;43.226;27.932;2023-11-19T13:20:20;7.10;;;4.07;;
77838;SDS011;67034;43.226;27.932;2023-11-19T13:22:53;8.05;;;4.47;;
77838;SDS011;67034;43.226;27.932;2023-11-19T13:25:20;7.80;;;3.85;;
77838;SDS011;67034;43.226;27.932;2023-11-19T13:27:46;5.63;;;3.75;;
77838;SDS011;67034;43.226;27.932;2023-11-19T13:32:38;6.40;;;4.30;;
77838;SDS011;67034;43.226;27.932;2023-11-19T13:35:06;8.32;;;4.88;;
77838;SDS011;67034;43.226;27.932;2023-11-19T13:37:33;5.07;;;3.67;;
77838;SDS011;67034;43.226;27.932;2023-11-19T13:39:59;8.35;;;3.90;;
77838;SDS011;67034;43.226;27.932;2023-11-19T13:42:25;8.20;;;3.97;;
77838;SDS011;67034;43.226;27.932;2023-11-19T13:44:51;4.28;;;3.28;;
77838;SDS011;67034;43.226;27.932;2023-11-19T13:47:17;7.70;;;4.40;;
77838;SDS011;67034;43.226;27.932;2023-11-19T13:49:44;7.15;;;4.55;;
77838;SDS011;67034;43.226;27.932;2023-11-19T13:52:11;6.10;;;3.67;;
77838;SDS011;67034;43.226;27.932;2023-11-19T13:54:38;9.32;;;5.18;;
77838;SDS011;67034;43.226;27.932;2023-11-19T13:57:04;7.53;;;5.15;;
77838;SDS011;67034;43.226;27.932;2023-11-19T13:59:30;5.95;;;3.78;;
77838;SDS011;67034;43.226;27.932;2023-11-19T14:01:57;6.50;;;3.97;;
77838;SDS011;67034;43.226;27.932;2023-11-19T14:04:23;8.65;;;5.60;;
77838;SDS011;67034;43.226;27.932;2023-11-19T14:06:49;10.23;;;4.05;;
77838;SDS011;67034;43.226;27.932;2023-11-19T14:09:16;6.43;;;3.30;;
77838;SDS011;67034;43.226;27.932;2023-11-19T14:11:42;6.68;;;3.85;;
77838;SDS011;67034;43.226;27.932;2023-11-19T14:14:08;4.68;;;2.97;;
77838;SDS011;67034;43.226;27.932;2023-11-19T14:16:34;6.55;;;3.80;;
77838;SDS011;67034;43.226;27.932;2023-11-19T14:18:59;4.38;;;3.00;;
77838;SDS011;67034;43.226;27.932;2023-11-19T14:21:25;7.93;;;4.95;;
77838;SDS011;67034;43.226;27.932;2023-11-19T14:23:51;7.88;;;5.15;;
77838;SDS011;67034;43.226;27.932;2023-11-19T14:26:19;4.47;;;3.53;;
77838;SDS011;67034;43.226;27.932;2023-11-19T14:28:45;6.07;;;4.00;;
77838;SDS011;67034;43.226;27.932;2023-11-19T14:31:10;6.40;;;4.40;;
77838;SDS011;67034;43.226;27.932;2023-11-19T14:33:36;9.38;;;3.85;;
77838;SDS011;67034;43.226;27.932;2023-11-19T14:36:03;7.22;;;3.45;;
77838;SDS011;67034;43.226;27.932;2023-11-19T14:38:31;6.25;;;2.95;;
77838;SDS011;67034;43.226;27.932;2023-11-19T14:40:58;5.43;;;3.33;;
77838;SDS011;67034;43.226;27.932;2023-11-19T14:43:26;5.93;;;4.03;;
77838;SDS011;67034;43.226;27.932;2023-11-19T14:45:51;5.97;;;3.88;;
77838;SDS011;67034;43.226;27.932;2023-11-19T14:48:17;6.63;;;3.60;;
77838;SDS011;67034;43.226;27.932;2023-11-19T14:50:43;3.97;;;2.92;;
77838;SDS011;67034;43.226;27.932;2023-11-19T14:53:12;5.03;;;3.17;;
77838;SDS011;67034;43.226;27.932;2023-11-19T14:55:38;9.55;;;4.60;;
77838;SDS011;67034;43.226;27.932;2023-11-19T14:58:03;8.32;;;3.92;;
77838;SDS011;67034;43.226;27.932;2023-11-19T15:00:31;5.90;;;4.18;;
77838;SDS011;67034;43.226;27.932;2023-11-19T15:02:56;5.75;;;3.50;;
77838;SDS011;67034;43.226;27.932;2023-11-19T15:05:22;5.30;;;3.03;;
77838;SDS011;67034;43.226;27.932;2023-11-19T15:07:48;6.70;;;4.03;;
77838;SDS011;67034;43.226;27.932;2023-11-19T15:10:13;8.65;;;4.60;;
77838;SDS011;67034;43.226;27.932;2023-11-19T15:12:39;9.40;;;4.65;;
77838;SDS011;67034;43.226;27.932;2023-11-19T15:15:07;6.45;;;4.35;;